sensor_id;sensor_type;location;lat;lon;timestamp;temperature;humidity
46091;DHT22;31826;53.572;10.170;2023-04-29T00:01:11;9.10;99.90
46091;DHT22;31826;53.572;10.170;2023-04-29T00:03:38;9.10;99.90
46091;DHT22;31826;53.572;10.170;2023-04-29T00:06:04;9.10;99.90
46091;DHT22;31826;53.572;10.170;2023-04-29T00:08:29;9.00;99.90
46091;DHT22;31826;53.572;10.170;2023-04-29T00:10:55;9.10;99.90
46091;DHT22;31826;53.572;10.170;2023-04-29T00:13:21;9.00;99.90
46091;DHT22;31826;53.572;10.170;2023-04-29T00:15:47;9.00;99.90
46091;DHT22;31826;53.572;10.170;2023-04-29T00:18:13;9.00;99.90
46091;DHT22;31826;53.572;10.170;2023-04-29T00:20:39;9.00;99.90
46091;DHT22;31826;53.572;10.170;2023-04-29T00:23:05;9.00;99.90
46091;DHT22;31826;53.572;10.170;2023-04-29T00:25:31;8.90;99.90
46091;DHT22;31826;53.572;10.170;2023-04-29T00:27:57;8.90;99.90
46091;DHT22;31826;53.572;10.170;2023-04-29T00:30:27;8.90;99.90
46091;DHT22;31826;53.572;10.170;2023-04-29T00:32:53;9.00;99.90
46091;DHT22;31826;53.572;10.170;2023-04-29T00:35:20;8.90;99.90
46091;DHT22;31826;53.572;10.170;2023-04-29T00:37:46;8.90;99.90
46091;DHT22;31826;53.572;10.170;2023-04-29T00:40:11;9.00;99.90
46091;DHT22;31826;53.572;10.170;2023-04-29T00:42:39;9.00;99.90
46091;DHT22;31826;53.572;10.170;2023-04-29T00:45:06;9.00;99.90
46091;DHT22;31826;53.572;10.170;2023-04-29T00:47:32;8.90;99.90
46091;DHT22;31826;53.572;10.170;2023-04-29T00:49:58;8.90;99.90
46091;DHT22;31826;53.572;10.170;2023-04-29T00:52:25;8.90;99.90
46091;DHT22;31826;53.572;10.170;2023-04-29T00:54:51;8.80;99.90
46091;DHT22;31826;53.572;10.170;2023-04-29T00:57:18;8.80;99.90
46091;DHT22;31826;53.572;10.170;2023-04-29T00:59:45;8.90;99.90
46091;DHT22;31826;53.572;10.170;2023-04-29T01:02:11;8.80;99.90
46091;DHT22;31826;53.572;10.170;2023-04-29T01:04:36;8.90;99.90
46091;DHT22;31826;53.572;10.170;2023-04-29T01:07:14;8.80;99.90
46091;DHT22;31826;53.572;10.170;2023-04-29T01:12:40;8.90;99.90
46091;DHT22;31826;53.572;10.170;2023-04-29T01:15:24;8.90;99.90
46091;DHT22;31826;53.572;10.170;2023-04-29T01:17:54;8.80;99.90
46091;DHT22;31826;53.572;10.170;2023-04-29T01:20:21;8.90;99.90
46091;DHT22;31826;53.572;10.170;2023-04-29T01:22:51;8.90;99.90
46091;DHT22;31826;53.572;10.170;2023-04-29T01:25:17;8.90;99.90
46091;DHT22;31826;53.572;10.170;2023-04-29T01:27:56;8.90;99.90
46091;DHT22;31826;53.572;10.170;2023-04-29T01:41:52;8.90;99.90
46091;DHT22;31826;53.572;10.170;2023-04-29T01:44:28;8.90;99.90
46091;DHT22;31826;53.572;10.170;2023-04-29T01:46:54;8.90;99.90
46091;DHT22;31826;53.572;10.170;2023-04-29T01:49:24;8.90;99.90
46091;DHT22;31826;53.572;10.170;2023-04-29T01:51:50;8.90;99.90
46091;DHT22;31826;53.572;10.170;2023-04-29T01:54:16;8.80;99.90
46091;DHT22;31826;53.572;10.170;2023-04-29T01:56:42;8.80;99.90
46091;DHT22;31826;53.572;10.170;2023-04-29T01:59:08;8.80;99.90
46091;DHT22;31826;53.572;10.170;2023-04-29T02:01:34;8.80;99.90
46091;DHT22;31826;53.572;10.170;2023-04-29T02:04:00;8.80;99.90
46091;DHT22;31826;53.572;10.170;2023-04-29T02:06:25;8.80;99.90
46091;DHT22;31826;53.572;10.170;2023-04-29T02:08:52;8.80;99.90
46091;DHT22;31826;53.572;10.170;2023-04-29T02:11:18;8.80;99.90
46091;DHT22;31826;53.572;10.170;2023-04-29T02:13:43;8.80;99.90
46091;DHT22;31826;53.572;10.170;2023-04-29T02:16:10;8.80;99.90
46091;DHT22;31826;53.572;10.170;2023-04-29T02:18:36;8.80;99.90
46091;DHT22;31826;53.572;10.170;2023-04-29T02:21:02;8.90;99.90
46091;DHT22;31826;53.572;10.170;2023-04-29T02:23:28;8.80;99.90
46091;DHT22;31826;53.572;10.170;2023-04-29T02:25:54;8.90;99.90
46091;DHT22;31826;53.572;10.170;2023-04-29T02:28:19;8.90;99.90
46091;DHT22;31826;53.572;10.170;2023-04-29T02:30:45;8.80;99.90
46091;DHT22;31826;53.572;10.170;2023-04-29T02:33:11;8.80;99.90
46091;DHT22;31826;53.572;10.170;2023-04-29T02:35:36;8.90;99.90
46091;DHT22;31826;53.572;10.170;2023-04-29T02:38:02;8.90;99.90
46091;DHT22;31826;53.572;10.170;2023-04-29T02:40:28;8.80;99.90
46091;DHT22;31826;53.572;10.170;2023-04-29T02:42:53;8.90;99.90
46091;DHT22;31826;53.572;10.170;2023-04-29T02:45:19;8.80;99.90
46091;DHT22;31826;53.572;10.170;2023-04-29T02:47:45;8.80;99.90
46091;DHT22;31826;53.572;10.170;2023-04-29T02:50:11;8.80;99.90
46091;DHT22;31826;53.572;10.170;2023-04-29T02:52:37;8.80;99.90
46091;DHT22;31826;53.572;10.170;2023-04-29T02:55:03;8.80;99.90
46091;DHT22;31826;53.572;10.170;2023-04-29T02:57:28;8.80;99.90
46091;DHT22;31826;53.572;10.170;2023-04-29T02:59:54;8.80;99.90
46091;DHT22;31826;53.572;10.170;2023-04-29T03:02:20;8.80;99.90
46091;DHT22;31826;53.572;10.170;2023-04-29T03:04:45;8.80;99.90
46091;DHT22;31826;53.572;10.170;2023-04-29T03:07:11;8.80;99.90
46091;DHT22;31826;53.572;10.170;2023-04-29T03:09:37;8.80;99.90
46091;DHT22;31826;53.572;10.170;2023-04-29T03:12:03;8.80;99.90
46091;DHT22;31826;53.572;10.170;2023-04-29T03:14:28;8.70;99.90
46091;DHT22;31826;53.572;10.170;2023-04-29T03:16:54;8.70;99.90
46091;DHT22;31826;53.572;10.170;2023-04-29T03:19:21;8.70;99.90
46091;DHT22;31826;53.572;10.170;2023-04-29T03:21:46;8.70;99.90
46091;DHT22;31826;53.572;10.170;2023-04-29T03:24:12;8.70;99.90
46091;DHT22;31826;53.572;10.170;2023-04-29T03:26:38;8.70;99.90
46091;DHT22;31826;53.572;10.170;2023-04-29T03:29:04;8.70;99.90
46091;DHT22;31826;53.572;10.170;2023-04-29T03:31:29;8.70;99.90
46091;DHT22;31826;53.572;10.170;2023-04-29T03:33:55;8.70;99.90
46091;DHT22;31826;53.572;10.170;2023-04-29T03:36:21;8.60;99.90
46091;DHT22;31826;53.572;10.170;2023-04-29T03:38:46;8.60;99.90
46091;DHT22;31826;53.572;10.170;2023-04-29T03:41:12;8.60;99.90
46091;DHT22;31826;53.572;10.170;2023-04-29T03:43:38;8.70;99.90
46091;DHT22;31826;53.572;10.170;2023-04-29T03:46:03;8.60;99.90
46091;DHT22;31826;53.572;10.170;2023-04-29T03:48:29;8.60;99.90
46091;DHT22;31826;53.572;10.170;2023-04-29T03:50:55;8.60;99.90
46091;DHT22;31826;53.572;10.170;2023-04-29T03:53:21;8.50;99.90
46091;DHT22;31826;53.572;10.170;2023-04-29T03:55:47;8.50;99.90
46091;DHT22;31826;53.572;10.170;2023-04-29T03:58:13;8.50;99.90
46091;DHT22;31826;53.572;10.170;2023-04-29T04:00:39;8.50;99.90
46091;DHT22;31826;53.572;10.170;2023-04-29T04:03:04;8.50;99.90
46091;DHT22;31826;53.572;10.170;2023-04-29T04:05:30;8.50;99.90
46091;DHT22;31826;53.572;10.170;2023-04-29T04:07:56;8.50;99.90
46091;DHT22;31826;53.572;10.170;2023-04-29T04:10:21;8.50;99.90
46091;DHT22;31826;53.572;10.170;2023-04-29T04:12:47;8.40;99.90
46091;DHT22;31826;53.572;10.170;2023-04-29T04:15:13;8.40;99.90
46091;DHT22;31826;53.572;10.170;2023-04-29T04:17:39;8.40;99.90
46091;DHT22;31826;53.572;10.170;2023-04-29T04:20:05;8.40;99.90
46091;DHT22;31826;53.572;10.170;2023-04-29T04:22:31;8.40;99.90
46091;DHT22;31826;53.572;10.170;2023-04-29T04:24:57;8.50;99.90
46091;DHT22;31826;53.572;10.170;2023-04-29T04:27:22;8.50;99.90
46091;DHT22;31826;53.572;10.170;2023-04-29T04:29:53;8.50;99.90
46091;DHT22;31826;53.572;10.170;2023-04-29T04:32:20;8.50;99.90
46091;DHT22;31826;53.572;10.170;2023-04-29T04:34:46;8.50;99.90
46091;DHT22;31826;53.572;10.170;2023-04-29T04:37:13;8.50;99.90
46091;DHT22;31826;53.572;10.170;2023-04-29T04:39:38;8.50;99.90
46091;DHT22;31826;53.572;10.170;2023-04-29T04:42:04;8.50;99.90
46091;DHT22;31826;53.572;10.170;2023-04-29T04:44:30;8.60;99.90
46091;DHT22;31826;53.572;10.170;2023-04-29T04:46:56;8.50;99.90
46091;DHT22;31826;53.572;10.170;2023-04-29T04:49:25;8.50;99.90
46091;DHT22;31826;53.572;10.170;2023-04-29T04:51:52;8.40;99.90
46091;DHT22;31826;53.572;10.170;2023-04-29T04:54:18;8.40;99.90
46091;DHT22;31826;53.572;10.170;2023-04-29T04:56:43;8.40;99.90
46091;DHT22;31826;53.572;10.170;2023-04-29T04:59:09;8.40;99.90
46091;DHT22;31826;53.572;10.170;2023-04-29T05:01:35;8.50;99.90
46091;DHT22;31826;53.572;10.170;2023-04-29T05:04:00;8.40;99.90
46091;DHT22;31826;53.572;10.170;2023-04-29T05:06:27;8.50;99.90
46091;DHT22;31826;53.572;10.170;2023-04-29T05:08:53;8.60;99.90
46091;DHT22;31826;53.572;10.170;2023-04-29T05:11:22;8.50;99.90
46091;DHT22;31826;53.572;10.170;2023-04-29T05:13:48;8.60;99.90
46091;DHT22;31826;53.572;10.170;2023-04-29T05:16:14;8.60;99.90
46091;DHT22;31826;53.572;10.170;2023-04-29T05:18:41;8.60;99.90
46091;DHT22;31826;53.572;10.170;2023-04-29T05:21:09;8.60;99.90
46091;DHT22;31826;53.572;10.170;2023-04-29T05:23:35;8.70;99.90
46091;DHT22;31826;53.572;10.170;2023-04-29T05:26:00;8.70;99.90
46091;DHT22;31826;53.572;10.170;2023-04-29T05:28:26;8.70;99.90
46091;DHT22;31826;53.572;10.170;2023-04-29T05:30:52;8.80;99.90
46091;DHT22;31826;53.572;10.170;2023-04-29T05:33:18;8.90;99.90
46091;DHT22;31826;53.572;10.170;2023-04-29T05:35:45;8.90;99.90
46091;DHT22;31826;53.572;10.170;2023-04-29T05:38:10;9.00;99.90
46091;DHT22;31826;53.572;10.170;2023-04-29T05:40:36;9.00;99.90
46091;DHT22;31826;53.572;10.170;2023-04-29T05:43:02;9.10;99.90
46091;DHT22;31826;53.572;10.170;2023-04-29T05:45:28;9.20;99.90
46091;DHT22;31826;53.572;10.170;2023-04-29T05:47:54;9.30;99.90
46091;DHT22;31826;53.572;10.170;2023-04-29T05:50:20;9.30;99.90
46091;DHT22;31826;53.572;10.170;2023-04-29T05:52:45;9.30;99.90
46091;DHT22;31826;53.572;10.170;2023-04-29T05:55:11;9.40;99.90
46091;DHT22;31826;53.572;10.170;2023-04-29T05:57:36;9.50;99.90
46091;DHT22;31826;53.572;10.170;2023-04-29T06:00:02;9.60;99.90
46091;DHT22;31826;53.572;10.170;2023-04-29T06:02:28;9.70;99.90
46091;DHT22;31826;53.572;10.170;2023-04-29T06:04:54;9.70;99.90
46091;DHT22;31826;53.572;10.170;2023-04-29T06:07:20;9.70;99.90
46091;DHT22;31826;53.572;10.170;2023-04-29T06:09:46;9.80;99.90
46091;DHT22;31826;53.572;10.170;2023-04-29T06:12:11;9.80;99.90
46091;DHT22;31826;53.572;10.170;2023-04-29T06:14:37;9.90;99.90
46091;DHT22;31826;53.572;10.170;2023-04-29T06:17:03;10.00;99.90
46091;DHT22;31826;53.572;10.170;2023-04-29T06:19:30;10.10;99.90
46091;DHT22;31826;53.572;10.170;2023-04-29T06:21:58;10.20;99.90
46091;DHT22;31826;53.572;10.170;2023-04-29T06:24:23;10.40;99.90
46091;DHT22;31826;53.572;10.170;2023-04-29T06:26:49;10.60;99.90
46091;DHT22;31826;53.572;10.170;2023-04-29T06:29:15;10.80;99.90
46091;DHT22;31826;53.572;10.170;2023-04-29T06:31:41;10.90;99.90
46091;DHT22;31826;53.572;10.170;2023-04-29T06:34:06;10.90;99.90
46091;DHT22;31826;53.572;10.170;2023-04-29T06:36:32;10.80;99.90
46091;DHT22;31826;53.572;10.170;2023-04-29T06:38:58;10.90;99.90
46091;DHT22;31826;53.572;10.170;2023-04-29T06:41:23;10.90;99.90
46091;DHT22;31826;53.572;10.170;2023-04-29T06:43:50;11.00;99.90
46091;DHT22;31826;53.572;10.170;2023-04-29T06:46:15;11.10;99.90
46091;DHT22;31826;53.572;10.170;2023-04-29T06:48:41;11.10;99.90
46091;DHT22;31826;53.572;10.170;2023-04-29T06:51:07;11.20;99.90
46091;DHT22;31826;53.572;10.170;2023-04-29T06:53:33;11.10;99.90
46091;DHT22;31826;53.572;10.170;2023-04-29T06:55:58;11.20;99.90
46091;DHT22;31826;53.572;10.170;2023-04-29T06:58:24;11.30;99.90
46091;DHT22;31826;53.572;10.170;2023-04-29T07:00:50;11.40;99.90
46091;DHT22;31826;53.572;10.170;2023-04-29T07:03:17;11.40;99.90
46091;DHT22;31826;53.572;10.170;2023-04-29T07:05:43;11.50;99.90
46091;DHT22;31826;53.572;10.170;2023-04-29T07:08:11;11.70;99.90
46091;DHT22;31826;53.572;10.170;2023-04-29T07:10:37;11.80;99.90
46091;DHT22;31826;53.572;10.170;2023-04-29T07:13:03;11.80;99.90
46091;DHT22;31826;53.572;10.170;2023-04-29T07:15:32;11.80;99.90
46091;DHT22;31826;53.572;10.170;2023-04-29T07:17:58;11.90;99.90
46091;DHT22;31826;53.572;10.170;2023-04-29T07:20:25;11.90;99.90
46091;DHT22;31826;53.572;10.170;2023-04-29T07:22:52;11.90;99.90
46091;DHT22;31826;53.572;10.170;2023-04-29T07:25:17;11.90;99.90
46091;DHT22;31826;53.572;10.170;2023-04-29T07:27:43;12.10;99.90
46091;DHT22;31826;53.572;10.170;2023-04-29T07:30:09;12.20;99.90
46091;DHT22;31826;53.572;10.170;2023-04-29T07:32:35;12.30;99.90
46091;DHT22;31826;53.572;10.170;2023-04-29T07:35:01;12.40;99.90
46091;DHT22;31826;53.572;10.170;2023-04-29T07:37:27;12.50;99.90
46091;DHT22;31826;53.572;10.170;2023-04-29T07:39:53;12.60;99.90
46091;DHT22;31826;53.572;10.170;2023-04-29T07:42:18;12.60;99.90
46091;DHT22;31826;53.572;10.170;2023-04-29T07:44:44;12.70;99.90
46091;DHT22;31826;53.572;10.170;2023-04-29T07:47:10;12.70;99.90
46091;DHT22;31826;53.572;10.170;2023-04-29T07:49:37;12.80;99.90
46091;DHT22;31826;53.572;10.170;2023-04-29T07:52:05;13.00;99.90
46091;DHT22;31826;53.572;10.170;2023-04-29T07:54:32;13.10;99.90
46091;DHT22;31826;53.572;10.170;2023-04-29T07:56:58;13.20;99.90
46091;DHT22;31826;53.572;10.170;2023-04-29T07:59:24;13.40;99.90
46091;DHT22;31826;53.572;10.170;2023-04-29T08:01:50;13.40;99.90
46091;DHT22;31826;53.572;10.170;2023-04-29T08:04:16;13.50;99.90
46091;DHT22;31826;53.572;10.170;2023-04-29T08:06:42;13.60;99.90
46091;DHT22;31826;53.572;10.170;2023-04-29T08:09:08;13.80;99.90
46091;DHT22;31826;53.572;10.170;2023-04-29T08:11:33;13.80;99.90
46091;DHT22;31826;53.572;10.170;2023-04-29T08:13:59;13.90;99.90
46091;DHT22;31826;53.572;10.170;2023-04-29T08:16:25;14.00;99.90
46091;DHT22;31826;53.572;10.170;2023-04-29T08:18:51;14.10;99.90
46091;DHT22;31826;53.572;10.170;2023-04-29T08:21:18;14.20;99.90
46091;DHT22;31826;53.572;10.170;2023-04-29T08:23:44;14.20;99.90
46091;DHT22;31826;53.572;10.170;2023-04-29T08:26:10;14.30;99.90
46091;DHT22;31826;53.572;10.170;2023-04-29T08:28:38;14.40;99.90
46091;DHT22;31826;53.572;10.170;2023-04-29T08:31:03;14.60;99.90
46091;DHT22;31826;53.572;10.170;2023-04-29T08:33:35;14.70;99.90
46091;DHT22;31826;53.572;10.170;2023-04-29T08:36:02;14.80;99.90
46091;DHT22;31826;53.572;10.170;2023-04-29T08:38:31;15.00;99.90
46091;DHT22;31826;53.572;10.170;2023-04-29T08:40:57;15.20;99.90
46091;DHT22;31826;53.572;10.170;2023-04-29T08:43:22;15.40;99.90
46091;DHT22;31826;53.572;10.170;2023-04-29T08:45:49;15.50;99.90
46091;DHT22;31826;53.572;10.170;2023-04-29T08:48:17;15.60;99.90
46091;DHT22;31826;53.572;10.170;2023-04-29T08:50:44;15.60;99.90
46091;DHT22;31826;53.572;10.170;2023-04-29T08:53:12;15.70;99.90
46091;DHT22;31826;53.572;10.170;2023-04-29T08:55:45;15.80;99.90
46091;DHT22;31826;53.572;10.170;2023-04-29T08:58:12;15.90;99.60
46091;DHT22;31826;53.572;10.170;2023-04-29T09:00:40;15.90;99.70
46091;DHT22;31826;53.572;10.170;2023-04-29T09:05:42;16.00;99.50
46091;DHT22;31826;53.572;10.170;2023-04-29T09:08:11;16.10;99.00
46091;DHT22;31826;53.572;10.170;2023-04-29T09:10:40;16.10;99.00
46091;DHT22;31826;53.572;10.170;2023-04-29T09:13:06;16.00;97.10
46091;DHT22;31826;53.572;10.170;2023-04-29T09:15:38;16.20;98.30
46091;DHT22;31826;53.572;10.170;2023-04-29T09:18:07;16.40;97.90
46091;DHT22;31826;53.572;10.170;2023-04-29T09:20:32;16.40;98.30
46091;DHT22;31826;53.572;10.170;2023-04-29T09:23:00;16.50;97.90
46091;DHT22;31826;53.572;10.170;2023-04-29T09:25:26;16.60;99.40
46091;DHT22;31826;53.572;10.170;2023-04-29T09:27:53;16.90;98.40
46091;DHT22;31826;53.572;10.170;2023-04-29T09:30:20;17.10;98.40
46091;DHT22;31826;53.572;10.170;2023-04-29T09:33:01;17.30;98.10
46091;DHT22;31826;53.572;10.170;2023-04-29T09:35:29;17.40;97.20
46091;DHT22;31826;53.572;10.170;2023-04-29T09:38:11;17.40;97.50
46091;DHT22;31826;53.572;10.170;2023-04-29T09:40:37;17.60;97.30
46091;DHT22;31826;53.572;10.170;2023-04-29T09:43:13;17.80;97.50
46091;DHT22;31826;53.572;10.170;2023-04-29T09:45:47;18.00;96.50
46091;DHT22;31826;53.572;10.170;2023-04-29T09:48:13;18.10;96.50
46091;DHT22;31826;53.572;10.170;2023-04-29T09:50:41;18.20;96.20
46091;DHT22;31826;53.572;10.170;2023-04-29T09:53:10;18.30;96.80
46091;DHT22;31826;53.572;10.170;2023-04-29T09:55:37;18.00;95.90
46091;DHT22;31826;53.572;10.170;2023-04-29T09:58:33;17.60;95.80
46091;DHT22;31826;53.572;10.170;2023-04-29T10:01:03;17.50;97.90
46091;DHT22;31826;53.572;10.170;2023-04-29T10:03:36;17.70;97.40
46091;DHT22;31826;53.572;10.170;2023-04-29T10:06:03;17.70;96.10
46091;DHT22;31826;53.572;10.170;2023-04-29T10:08:30;17.70;97.40
46091;DHT22;31826;53.572;10.170;2023-04-29T10:10:59;18.20;97.10
46091;DHT22;31826;53.572;10.170;2023-04-29T10:13:25;18.40;94.70
46091;DHT22;31826;53.572;10.170;2023-04-29T10:16:22;18.50;95.70
46091;DHT22;31826;53.572;10.170;2023-04-29T10:18:48;18.90;97.30
46091;DHT22;31826;53.572;10.170;2023-04-29T10:21:17;19.00;94.90
46091;DHT22;31826;53.572;10.170;2023-04-29T10:23:46;18.70;93.60
46091;DHT22;31826;53.572;10.170;2023-04-29T10:26:13;18.70;95.40
46091;DHT22;31826;53.572;10.170;2023-04-29T10:28:42;19.00;94.80
46091;DHT22;31826;53.572;10.170;2023-04-29T10:31:11;19.20;94.20
46091;DHT22;31826;53.572;10.170;2023-04-29T10:33:39;19.30;94.00
46091;DHT22;31826;53.572;10.170;2023-04-29T10:36:08;19.60;93.70
46091;DHT22;31826;53.572;10.170;2023-04-29T10:38:39;19.80;93.30
46091;DHT22;31826;53.572;10.170;2023-04-29T10:41:20;20.10;92.30
46091;DHT22;31826;53.572;10.170;2023-04-29T10:43:49;20.20;92.20
46091;DHT22;31826;53.572;10.170;2023-04-29T10:46:16;20.50;92.70
46091;DHT22;31826;53.572;10.170;2023-04-29T10:48:48;20.10;89.20
46091;DHT22;31826;53.572;10.170;2023-04-29T10:54:01;20.20;91.00
46091;DHT22;31826;53.572;10.170;2023-04-29T10:56:53;20.40;90.70
46091;DHT22;31826;53.572;10.170;2023-04-29T11:02:06;20.50;90.30
46091;DHT22;31826;53.572;10.170;2023-04-29T11:04:32;20.80;90.60
46091;DHT22;31826;53.572;10.170;2023-04-29T11:06:57;20.90;89.70
46091;DHT22;31826;53.572;10.170;2023-04-29T11:09:27;20.90;87.90
46091;DHT22;31826;53.572;10.170;2023-04-29T11:14:47;21.00;89.70
46091;DHT22;31826;53.572;10.170;2023-04-29T11:17:17;20.50;90.10
46091;DHT22;31826;53.572;10.170;2023-04-29T11:19:45;20.20;89.60
46091;DHT22;31826;53.572;10.170;2023-04-29T11:25:02;19.50;90.90
46091;DHT22;31826;53.572;10.170;2023-04-29T11:27:32;19.20;89.50
46091;DHT22;31826;53.572;10.170;2023-04-29T11:29:58;18.70;91.20
46091;DHT22;31826;53.572;10.170;2023-04-29T11:32:26;18.30;90.10
46091;DHT22;31826;53.572;10.170;2023-04-29T11:34:52;18.70;92.90
46091;DHT22;31826;53.572;10.170;2023-04-29T11:37:20;19.60;92.30
46091;DHT22;31826;53.572;10.170;2023-04-29T11:39:46;20.00;91.30
46091;DHT22;31826;53.572;10.170;2023-04-29T11:42:12;19.80;90.30
46091;DHT22;31826;53.572;10.170;2023-04-29T11:44:37;20.00;89.60
46091;DHT22;31826;53.572;10.170;2023-04-29T11:47:06;19.90;88.90
46091;DHT22;31826;53.572;10.170;2023-04-29T11:49:33;19.90;89.80
46091;DHT22;31826;53.572;10.170;2023-04-29T11:51:59;20.30;90.50
46091;DHT22;31826;53.572;10.170;2023-04-29T11:54:26;20.90;90.30
46091;DHT22;31826;53.572;10.170;2023-04-29T11:56:53;21.40;86.10
46091;DHT22;31826;53.572;10.170;2023-04-29T11:59:20;21.30;84.50
46091;DHT22;31826;53.572;10.170;2023-04-29T12:01:50;21.40;86.70
46091;DHT22;31826;53.572;10.170;2023-04-29T12:04:16;21.20;85.30
46091;DHT22;31826;53.572;10.170;2023-04-29T12:06:42;21.40;84.80
46091;DHT22;31826;53.572;10.170;2023-04-29T12:09:08;21.80;86.90
46091;DHT22;31826;53.572;10.170;2023-04-29T12:11:35;21.90;86.20
46091;DHT22;31826;53.572;10.170;2023-04-29T12:14:02;21.70;84.60
46091;DHT22;31826;53.572;10.170;2023-04-29T12:16:31;22.10;86.70
46091;DHT22;31826;53.572;10.170;2023-04-29T12:18:56;21.70;86.00
46091;DHT22;31826;53.572;10.170;2023-04-29T12:21:23;21.50;85.70
46091;DHT22;31826;53.572;10.170;2023-04-29T12:23:50;21.30;85.80
46091;DHT22;31826;53.572;10.170;2023-04-29T12:26:16;20.70;89.00
46091;DHT22;31826;53.572;10.170;2023-04-29T12:28:43;20.80;87.70
46091;DHT22;31826;53.572;10.170;2023-04-29T12:31:09;20.80;86.00
46091;DHT22;31826;53.572;10.170;2023-04-29T12:33:42;21.00;85.80
46091;DHT22;31826;53.572;10.170;2023-04-29T12:36:15;20.90;84.20
46091;DHT22;31826;53.572;10.170;2023-04-29T12:38:46;20.90;85.80
46091;DHT22;31826;53.572;10.170;2023-04-29T12:41:12;20.20;86.00
46091;DHT22;31826;53.572;10.170;2023-04-29T12:43:40;19.90;85.30
46091;DHT22;31826;53.572;10.170;2023-04-29T12:46:07;19.50;87.50
46091;DHT22;31826;53.572;10.170;2023-04-29T12:48:34;19.50;90.00
46091;DHT22;31826;53.572;10.170;2023-04-29T12:51:02;19.50;89.80
46091;DHT22;31826;53.572;10.170;2023-04-29T12:53:29;19.90;86.30
46091;DHT22;31826;53.572;10.170;2023-04-29T12:55:55;20.00;85.90
46091;DHT22;31826;53.572;10.170;2023-04-29T12:58:21;20.50;85.30
46091;DHT22;31826;53.572;10.170;2023-04-29T13:00:47;20.10;81.50
46091;DHT22;31826;53.572;10.170;2023-04-29T13:03:13;20.30;85.70
46091;DHT22;31826;53.572;10.170;2023-04-29T13:05:39;21.20;87.00
46091;DHT22;31826;53.572;10.170;2023-04-29T13:08:06;21.10;81.20
46091;DHT22;31826;53.572;10.170;2023-04-29T13:10:33;21.30;82.40
46091;DHT22;31826;53.572;10.170;2023-04-29T13:12:59;21.80;83.90
46091;DHT22;31826;53.572;10.170;2023-04-29T13:15:25;21.50;79.20
46091;DHT22;31826;53.572;10.170;2023-04-29T13:17:52;21.30;79.50
46091;DHT22;31826;53.572;10.170;2023-04-29T13:20:18;21.10;80.10
46091;DHT22;31826;53.572;10.170;2023-04-29T13:22:45;20.90;81.10
46091;DHT22;31826;53.572;10.170;2023-04-29T13:25:10;20.30;84.50
46091;DHT22;31826;53.572;10.170;2023-04-29T13:27:37;20.90;87.80
46091;DHT22;31826;53.572;10.170;2023-04-29T13:30:06;21.30;87.50
46091;DHT22;31826;53.572;10.170;2023-04-29T13:32:33;21.50;84.80
46091;DHT22;31826;53.572;10.170;2023-04-29T13:34:59;19.80;83.90
46091;DHT22;31826;53.572;10.170;2023-04-29T13:37:25;19.20;87.20
46091;DHT22;31826;53.572;10.170;2023-04-29T13:39:51;19.20;89.20
46091;DHT22;31826;53.572;10.170;2023-04-29T13:42:17;19.30;88.20
46091;DHT22;31826;53.572;10.170;2023-04-29T13:44:42;19.50;85.70
46091;DHT22;31826;53.572;10.170;2023-04-29T13:47:14;19.40;86.60
46091;DHT22;31826;53.572;10.170;2023-04-29T13:49:40;19.60;85.00
46091;DHT22;31826;53.572;10.170;2023-04-29T13:52:09;19.70;85.10
46091;DHT22;31826;53.572;10.170;2023-04-29T13:54:35;20.20;86.10
46091;DHT22;31826;53.572;10.170;2023-04-29T13:57:01;20.00;82.90
46091;DHT22;31826;53.572;10.170;2023-04-29T13:59:33;20.10;81.50
46091;DHT22;31826;53.572;10.170;2023-04-29T14:02:00;20.50;81.80
46091;DHT22;31826;53.572;10.170;2023-04-29T14:04:26;20.40;81.80
46091;DHT22;31826;53.572;10.170;2023-04-29T14:06:53;20.50;81.30
46091;DHT22;31826;53.572;10.170;2023-04-29T14:09:19;20.20;82.60
46091;DHT22;31826;53.572;10.170;2023-04-29T14:11:46;19.80;82.10
46091;DHT22;31826;53.572;10.170;2023-04-29T14:14:12;19.70;82.90
46091;DHT22;31826;53.572;10.170;2023-04-29T14:16:38;19.60;84.40
46091;DHT22;31826;53.572;10.170;2023-04-29T14:19:05;19.90;84.20
46091;DHT22;31826;53.572;10.170;2023-04-29T14:21:32;19.90;83.30
46091;DHT22;31826;53.572;10.170;2023-04-29T14:24:01;19.90;83.70
46091;DHT22;31826;53.572;10.170;2023-04-29T14:26:28;19.70;82.30
46091;DHT22;31826;53.572;10.170;2023-04-29T14:28:55;19.60;83.40
46091;DHT22;31826;53.572;10.170;2023-04-29T14:31:32;19.60;82.50
46091;DHT22;31826;53.572;10.170;2023-04-29T14:33:59;19.30;83.90
46091;DHT22;31826;53.572;10.170;2023-04-29T14:36:25;19.20;84.20
46091;DHT22;31826;53.572;10.170;2023-04-29T14:38:52;19.30;84.70
46091;DHT22;31826;53.572;10.170;2023-04-29T14:41:18;19.20;84.90
46091;DHT22;31826;53.572;10.170;2023-04-29T14:43:45;18.70;83.90
46091;DHT22;31826;53.572;10.170;2023-04-29T14:46:11;18.40;85.00
46091;DHT22;31826;53.572;10.170;2023-04-29T14:48:37;18.50;84.60
46091;DHT22;31826;53.572;10.170;2023-04-29T14:51:03;18.40;83.80
46091;DHT22;31826;53.572;10.170;2023-04-29T14:53:29;18.40;84.90
46091;DHT22;31826;53.572;10.170;2023-04-29T14:55:54;18.60;84.00
46091;DHT22;31826;53.572;10.170;2023-04-29T14:58:20;18.40;86.30
46091;DHT22;31826;53.572;10.170;2023-04-29T15:00:46;18.10;84.30
46091;DHT22;31826;53.572;10.170;2023-04-29T15:03:12;18.40;88.80
46091;DHT22;31826;53.572;10.170;2023-04-29T15:05:38;18.60;85.30
46091;DHT22;31826;53.572;10.170;2023-04-29T15:08:04;18.80;85.20
46091;DHT22;31826;53.572;10.170;2023-04-29T15:10:29;19.20;85.50
46091;DHT22;31826;53.572;10.170;2023-04-29T15:12:56;18.90;83.70
46091;DHT22;31826;53.572;10.170;2023-04-29T15:15:22;17.80;85.20
46091;DHT22;31826;53.572;10.170;2023-04-29T15:17:48;17.50;87.70
46091;DHT22;31826;53.572;10.170;2023-04-29T15:20:14;17.10;89.10
46091;DHT22;31826;53.572;10.170;2023-04-29T15:22:40;17.30;90.60
46091;DHT22;31826;53.572;10.170;2023-04-29T15:25:06;17.30;90.50
46091;DHT22;31826;53.572;10.170;2023-04-29T15:27:33;17.40;90.10
46091;DHT22;31826;53.572;10.170;2023-04-29T15:29:59;17.40;90.30
46091;DHT22;31826;53.572;10.170;2023-04-29T15:32:25;17.30;90.90
46091;DHT22;31826;53.572;10.170;2023-04-29T15:34:56;17.20;90.80
46091;DHT22;31826;53.572;10.170;2023-04-29T15:37:22;17.10;91.60
46091;DHT22;31826;53.572;10.170;2023-04-29T15:39:47;17.20;91.40
46091;DHT22;31826;53.572;10.170;2023-04-29T15:42:13;17.20;91.50
46091;DHT22;31826;53.572;10.170;2023-04-29T15:44:39;17.00;91.90
46091;DHT22;31826;53.572;10.170;2023-04-29T15:47:05;16.60;91.90
46091;DHT22;31826;53.572;10.170;2023-04-29T15:49:30;16.30;92.20